Time;durP1;ratioP1;P1;durP2;ratioP2;P2;SDS_P1;SDS_P2;PMS_P1;PMS_P2;Temp;Humidity;BMP_temperature;BMP_pressure;BME280_temperature;BME280_humidity;BME280_pressure;Samples;Min_cycle;Max_cycle;Signal;HPM_P1;HPM_P2
2020/12/17 00:00:35;;;;;;;14.77;9.52;;;0.00;92.30;;;;;;5079582;28;20012;-84
2020/12/17 00:03:15;;;;;;;18.08;10.43;;;0.10;92.40;;;;;;5075874;28;20051;-84
2020/12/17 00:05:40;;;;;;;14.18;9.15;;;0.10;92.40;;;;;;5078921;28;20024;-84
2020/12/17 00:08:08;;;;;;;15.90;10.32;;;0.10;92.40;;;;;;5073829;28;20028;-84
2020/12/17 00:10:36;;;;;;;17.52;9.60;;;0.10;92.30;;;;;;5073463;28;20023;-83
2020/12/17 00:13:04;;;;;;;17.20;9.68;;;0.10;92.40;;;;;;5079919;28;20389;-84
2020/12/17 00:15:32;;;;;;;16.25;9.82;;;0.10;92.40;;;;;;5073994;28;20588;-84
2020/12/17 00:17:58;;;;;;;;;;;0.10;92.40;;;;;;5083835;28;20056;-82
2020/12/17 00:20:26;;;;;;;16.65;9.73;;;0.10;92.40;;;;;;5083524;28;19999;-83
2020/12/17 00:22:54;;;;;;;17.42;10.60;;;0.00;92.40;;;;;;5081481;28;20474;-82
2020/12/17 00:25:23;;;;;;;14.98;9.18;;;0.00;92.50;;;;;;5076095;28;20045;-84
2020/12/17 00:27:53;;;;;;;17.02;9.40;;;0.10;92.50;;;;;;5081132;28;20043;-83
2020/12/17 00:30:19;;;;;;;18.52;10.07;;;0.00;92.60;;;;;;5062832;28;20378;-84
2020/12/17 00:32:46;;;;;;;15.23;10.63;;;-0.10;92.70;;;;;;5076768;28;20032;-84
2020/12/17 00:35:14;;;;;;;19.15;11.18;;;-0.10;93.00;;;;;;5075427;28;20063;-85
2020/12/17 00:37:43;;;;;;;15.45;10.90;;;-0.10;93.10;;;;;;5074406;28;20060;-83
2020/12/17 00:40:15;;;;;;;17.50;8.65;;;-0.10;93.20;;;;;;5052139;28;20028;-83
2020/12/17 00:42:44;;;;;;;18.13;9.88;;;-0.20;93.30;;;;;;5050542;28;20029;-83
2020/12/17 00:45:15;;;;;;;16.52;9.70;;;-0.20;93.40;;;;;;5051239;28;20040;-83
2020/12/17 00:47:41;;;;;;;13.93;7.28;;;-0.20;93.50;;;;;;5051586;28;20017;-82
2020/12/17 00:50:11;;;;;;;14.02;10.00;;;-0.20;93.70;;;;;;5050880;28;20037;-82
2020/12/17 00:52:39;;;;;;;15.90;9.05;;;-0.10;93.80;;;;;;5050761;28;20053;-84
2020/12/17 00:55:08;;;;;;;14.30;9.63;;;-0.10;93.70;;;;;;5050855;28;20025;-82
2020/12/17 00:57:36;;;;;;;13.85;8.27;;;-0.10;93.70;;;;;;5056943;28;20045;-81
2020/12/17 01:00:05;;;;;;;16.00;9.38;;;0.00;93.80;;;;;;5050675;28;20056;-83
2020/12/17 01:02:33;;;;;;;9.63;6.75;;;0.00;93.80;;;;;;5052678;28;20025;-82
2020/12/17 01:04:59;;;;;;;;;;;0.00;93.90;;;;;;5045160;28;20475;-83
2020/12/17 01:07:27;;;;;;;14.60;7.57;;;0.00;93.80;;;;;;5050838;28;20022;-82
2020/12/17 01:09:53;;;;;;;;;;;0.00;93.80;;;;;;5057301;28;20044;-83
2020/12/17 01:12:23;;;;;;;13.90;7.28;;;0.00;93.70;;;;;;5075145;28;19917;-82
2020/12/17 01:14:50;;;;;;;10.50;6.68;;;0.00;93.90;;;;;;5052589;28;20484;-83
2020/12/17 01:17:16;;;;;;;14.60;7.80;;;-0.10;94.00;;;;;;5059996;28;20090;-82
2020/12/17 01:19:44;;;;;;;12.13;7.03;;;0.00;94.10;;;;;;5060328;28;20053;-83
2020/12/17 01:22:11;;;;;;;13.50;8.23;;;0.00;94.10;;;;;;5066026;28;20028;-82
2020/12/17 01:24:39;;;;;;;10.70;5.97;;;0.00;94.20;;;;;;5075061;28;20107;-83
2020/12/17 01:27:08;;;;;;;9.70;6.43;;;0.00;94.20;;;;;;5068919;28;20039;-83
2020/12/17 01:29:34;;;;;;;10.98;6.97;;;0.00;94.20;;;;;;5077769;28;20024;-82
2020/12/17 01:32:01;;;;;;;10.40;6.38;;;0.00;94.30;;;;;;5088722;28;20451;-82
2020/12/17 01:34:26;;;;;;;10.67;7.07;;;0.00;94.30;;;;;;5075954;28;20017;-81
2020/12/17 01:36:55;;;;;;;8.57;6.93;;;0.10;94.30;;;;;;5054715;28;20045;-82
2020/12/17 01:39:26;;;;;;;9.48;5.90;;;0.00;94.30;;;;;;5056467;28;20029;-81
2020/12/17 01:41:53;;;;;;;9.73;5.68;;;0.00;94.30;;;;;;5072625;28;20071;-81
2020/12/17 01:44:19;;;;;;;8.40;5.40;;;0.10;94.30;;;;;;5075300;28;20492;-81
2020/12/17 01:46:47;;;;;;;9.30;5.60;;;0.10;94.20;;;;;;5073968;28;20028;-81
2020/12/17 01:49:15;;;;;;;;;;;0.10;94.20;;;;;;5070905;28;20417;-81
2020/12/17 01:51:42;;;;;;;9.20;6.03;;;0.10;94.10;;;;;;5075082;28;19912;-81
2020/12/17 01:54:08;;;;;;;8.65;5.57;;;0.10;94.20;;;;;;5078449;28;20028;-81
2020/12/17 01:56:38;;;;;;;10.20;5.10;;;0.10;94.20;;;;;;5080219;28;20029;-81
2020/12/17 01:59:12;;;;;;;8.15;5.60;;;0.10;94.10;;;;;;5076474;28;20119;-81
2020/12/17 02:01:48;;;;;;;5.70;4.35;;;0.20;94.00;;;;;;5075237;28;20553;-82
2020/12/17 02:04:17;;;;;;;6.70;4.25;;;0.10;94.00;;;;;;5074893;28;20066;-81
2020/12/17 02:06:43;;;;;;;7.75;5.00;;;0.20;94.10;;;;;;5075216;28;20103;-82
2020/12/17 02:09:09;;;;;;;11.00;6.85;;;0.20;94.20;;;;;;5074774;28;20433;-81
2020/12/17 02:11:36;;;;;;;7.15;5.25;;;0.20;94.10;;;;;;5076766;28;20071;-81
2020/12/17 02:14:03;;;;;;;10.82;6.57;;;0.20;94.20;;;;;;5075323;28;20029;-81
2020/12/17 02:16:29;;;;;;;7.55;5.05;;;0.20;94.20;;;;;;5075016;28;20531;-81
2020/12/17 02:18:56;;;;;;;8.25;5.05;;;0.20;94.30;;;;;;5073922;28;20028;-81
2020/12/17 02:21:24;;;;;;;8.10;5.30;;;0.20;94.30;;;;;;5080627;28;20059;-80
2020/12/17 02:23:50;;;;;;;8.10;4.80;;;0.20;94.30;;;;;;5079494;28;20029;-81
2020/12/17 02:26:16;;;;;;;7.72;4.60;;;0.20;94.20;;;;;;5077345;28;20036;-81
2020/12/17 02:28:42;;;;;;;9.80;6.38;;;0.20;94.20;;;;;;5053498;28;20021;-81
2020/12/17 02:31:08;;;;;;;10.57;5.70;;;0.20;94.30;;;;;;5068429;28;20021;-80
2020/12/17 02:33:35;;;;;;;7.78;5.25;;;0.20;94.30;;;;;;5073600;28;20024;-79
2020/12/17 02:36:01;;;;;;;7.90;5.40;;;0.20;94.10;;;;;;5077221;28;20046;-81
2020/12/17 02:38:28;;;;;;;7.68;5.60;;;0.30;94.00;;;;;;5072972;28;20490;-81
2020/12/17 02:40:54;;;;;;;7.45;5.13;;;0.20;93.90;;;;;;5074225;28;20066;-81
2020/12/17 02:43:20;;;;;;;9.30;5.45;;;0.20;93.90;;;;;;5073847;28;20028;-82
2020/12/17 02:45:48;;;;;;;10.00;6.35;;;0.30;94.00;;;;;;5073947;28;20013;-81
2020/12/17 02:48:16;;;;;;;7.20;5.35;;;0.30;93.90;;;;;;5079734;28;20020;-81
2020/12/17 02:50:42;;;;;;;;;;;0.30;93.80;;;;;;5074429;28;20114;-82
2020/12/17 02:53:11;;;;;;;6.85;4.35;;;0.30;93.90;;;;;;5073825;28;19912;-81
2020/12/17 02:55:38;;;;;;;10.88;5.35;;;0.30;94.00;;;;;;5073709;28;20024;-81
2020/12/17 02:58:06;;;;;;;8.23;5.50;;;0.30;94.00;;;;;;5074347;28;20028;-81
2020/12/17 03:00:32;;;;;;;9.88;5.45;;;0.30;94.10;;;;;;5073957;28;20023;-80
2020/12/17 03:02:59;;;;;;;12.18;6.22;;;0.30;94.10;;;;;;5072697;28;20029;-81
2020/12/17 03:05:25;;;;;;;9.13;5.40;;;0.30;94.10;;;;;;5073972;28;20021;-82
2020/12/17 03:07:51;;;;;;;7.90;5.82;;;0.30;94.10;;;;;;5076132;28;20108;-81
2020/12/17 03:10:18;;;;;;;10.00;6.97;;;0.30;94.10;;;;;;5074308;28;20024;-81
2020/12/17 03:12:45;;;;;;;9.48;5.80;;;0.30;94.10;;;;;;5084431;28;20023;-80
2020/12/17 03:15:12;;;;;;;11.77;5.15;;;0.40;94.00;;;;;;5091701;28;20409;-81
2020/12/17 03:17:41;;;;;;;8.30;5.90;;;0.40;94.10;;;;;;5071153;28;20049;-80
2020/12/17 03:20:11;;;;;;;8.73;5.75;;;0.30;94.20;;;;;;5074055;28;20031;-81
2020/12/17 03:22:37;;;;;;;11.05;6.43;;;0.40;94.20;;;;;;5073636;28;20043;-81
2020/12/17 03:25:09;;;;;;;8.65;5.95;;;0.40;94.20;;;;;;5073611;28;20143;-80
2020/12/17 03:27:36;;;;;;;10.70;5.95;;;0.40;94.20;;;;;;5073295;28;20092;-82
2020/12/17 03:30:07;;;;;;;7.93;5.15;;;0.40;94.10;;;;;;5066600;28;20020;-82
2020/12/17 03:32:33;;;;;;;8.55;5.95;;;0.40;94.10;;;;;;5076860;28;20028;-82
2020/12/17 03:35:02;;;;;;;12.00;6.03;;;0.40;94.20;;;;;;5074042;28;20030;-82
2020/12/17 03:37:29;;;;;;;8.90;6.07;;;0.40;94.20;;;;;;5072774;28;20351;-81
2020/12/17 03:39:56;;;;;;;9.00;5.35;;;0.40;94.30;;;;;;5073705;28;20127;-81
2020/12/17 03:42:25;;;;;;;9.88;6.22;;;0.40;94.30;;;;;;5064984;28;20024;-82
2020/12/17 03:44:52;;;;;;;13.07;5.78;;;0.40;94.30;;;;;;5074256;28;20166;-81
2020/12/17 03:47:18;;;;;;;8.82;6.05;;;0.40;94.30;;;;;;5073232;28;20465;-81
2020/12/17 03:49:44;;;;;;;9.43;6.22;;;0.40;94.30;;;;;;5073317;28;20024;-81
2020/12/17 03:52:10;;;;;;;9.07;6.10;;;0.40;94.40;;;;;;5074600;28;20029;-82
2020/12/17 03:54:37;;;;;;;9.23;5.50;;;0.40;94.40;;;;;;5076693;28;20750;-81
2020/12/17 03:57:04;;;;;;;8.98;5.95;;;0.40;94.40;;;;;;5076488;28;20024;-81
2020/12/17 03:59:32;;;;;;;11.02;5.28;;;0.40;94.50;;;;;;5083719;28;20021;-82
2020/12/17 04:01:57;;;;;;;9.73;5.55;;;0.40;94.50;;;;;;5075269;28;20432;-82
2020/12/17 04:04:24;;;;;;;9.70;6.30;;;0.40;94.60;;;;;;5074422;28;20024;-82
2020/12/17 04:06:50;;;;;;;10.98;5.15;;;0.40;94.60;;;;;;5074000;28;20481;-82
2020/12/17 04:09:15;;;;;;;9.98;6.68;;;0.40;94.60;;;;;;5077528;28;20017;-81
2020/12/17 04:11:41;;;;;;;7.20;5.22;;;0.40;94.70;;;;;;5082760;28;20531;-81
2020/12/17 04:14:07;;;;;;;9.95;6.78;;;0.40;94.60;;;;;;5075238;28;20028;-82
2020/12/17 04:16:33;;;;;;;11.13;6.15;;;0.40;94.80;;;;;;5073854;28;20464;-80
2020/12/17 04:18:59;;;;;;;8.20;5.45;;;0.40;94.60;;;;;;5072051;28;20032;-81
2020/12/17 04:21:24;;;;;;;10.48;6.32;;;0.40;94.60;;;;;;5073308;28;20020;-84
2020/12/17 04:23:50;;;;;;;11.27;7.07;;;0.40;94.70;;;;;;5076538;28;20120;-83
2020/12/17 04:26:16;;;;;;;8.57;5.75;;;0.40;94.70;;;;;;5074815;28;20418;-81
2020/12/17 04:28:42;;;;;;;8.48;6.20;;;0.40;94.70;;;;;;5082178;28;20031;-81
2020/12/17 04:31:08;;;;;;;11.90;5.80;;;0.50;94.80;;;;;;5075989;28;20021;-80
2020/12/17 04:33:34;;;;;;;10.18;5.90;;;0.40;94.90;;;;;;5077127;28;20047;-83
2020/12/17 04:36:00;;;;;;;14.07;6.55;;;0.40;95.00;;;;;;5076069;28;20016;-83
2020/12/17 04:38:26;;;;;;;10.40;6.18;;;0.40;95.10;;;;;;5073817;28;20024;-81
2020/12/17 04:40:52;;;;;;;10.80;6.80;;;0.40;95.10;;;;;;5067534;28;20021;-84
2020/12/17 04:43:18;;;;;;;9.90;6.18;;;0.50;95.10;;;;;;5071897;28;20047;-82
2020/12/17 04:45:44;;;;;;;9.82;6.15;;;0.50;95.10;;;;;;5073762;28;20380;-82
2020/12/17 04:48:15;;;;;;;11.90;5.85;;;0.50;95.10;;;;;;5071963;28;20027;-83
2020/12/17 04:50:42;;;;;;;9.18;6.95;;;0.50;95.10;;;;;;5071245;28;20034;-80
2020/12/17 04:53:14;;;;;;;13.32;7.18;;;0.50;95.10;;;;;;5071879;28;20036;-80
2020/12/17 04:55:42;;;;;;;9.90;5.93;;;0.50;95.10;;;;;;5072299;28;20012;-81
2020/12/17 04:58:10;;;;;;;9.35;5.85;;;0.50;95.10;;;;;;5072936;28;20056;-81
2020/12/17 05:00:40;;;;;;;10.05;6.63;;;0.50;95.10;;;;;;5071305;28;20100;-81
2020/12/17 05:03:12;;;;;;;12.82;7.05;;;0.50;95.40;;;;;;5075675;28;20041;-80
2020/12/17 05:05:39;;;;;;;12.20;6.65;;;0.60;95.10;;;;;;5075230;28;20477;-80
2020/12/17 05:08:06;;;;;;;11.17;7.23;;;0.60;95.40;;;;;;5075471;28;20448;-81
2020/12/17 05:10:31;;;;;;;13.10;6.82;;;0.60;95.10;;;;;;5075756;28;20385;-82
2020/12/17 05:12:58;;;;;;;12.05;8.63;;;0.70;95.00;;;;;;5075242;28;20047;-80
2020/12/17 05:15:25;;;;;;;13.57;7.15;;;0.70;95.00;;;;;;5076523;28;20435;-81
2020/12/17 05:17:52;;;;;;;;;;;0.70;94.90;;;;;;5078247;28;20043;-80
2020/12/17 05:20:18;;;;;;;8.23;5.57;;;0.80;94.90;;;;;;5076957;28;19909;-80
2020/12/17 05:22:46;;;;;;;12.25;7.18;;;0.80;94.90;;;;;;5075608;28;20469;-81
2020/12/17 05:25:14;;;;;;;8.30;6.68;;;0.80;94.90;;;;;;5075412;28;20044;-81
2020/12/17 05:27:41;;;;;;;18.10;7.80;;;0.80;94.90;;;;;;5075023;28;20040;-79
2020/12/17 05:30:07;;;;;;;15.25;7.00;;;0.90;94.90;;;;;;5075486;28;20123;-81
2020/12/17 05:32:33;;;;;;;14.73;6.38;;;0.90;94.90;;;;;;5075229;28;20120;-82
2020/12/17 05:35:02;;;;;;;11.02;5.82;;;0.90;94.90;;;;;;5075327;28;20105;-81
2020/12/17 05:37:30;;;;;;;9.80;7.18;;;1.00;94.80;;;;;;5070811;28;20056;-81
2020/12/17 05:40:00;;;;;;;12.15;7.57;;;1.00;94.80;;;;;;5075507;28;20017;-80
2020/12/17 05:42:27;;;;;;;10.38;6.32;;;1.00;94.70;;;;;;5075194;28;20044;-80
2020/12/17 05:44:53;;;;;;;8.63;6.20;;;1.10;94.60;;;;;;5075264;28;20066;-82
2020/12/17 05:47:19;;;;;;;11.38;6.22;;;1.10;94.60;;;;;;5078833;28;20253;-81
2020/12/17 05:49:44;;;;;;;11.02;7.18;;;1.20;94.50;;;;;;5076665;28;20028;-81
2020/12/17 05:52:38;;;;;;;13.82;6.93;;;1.20;94.50;;;;;;5075520;28;20033;-81
2020/12/17 05:55:04;;;;;;;12.52;6.30;;;1.30;94.40;;;;;;5073692;28;20043;-81
2020/12/17 05:57:30;;;;;;;9.50;6.03;;;1.30;94.40;;;;;;5076039;28;20025;-81
2020/12/17 06:00:05;;;;;;;11.60;7.78;;;1.30;94.30;;;;;;5079673;28;20021;-81
2020/12/17 06:02:35;;;;;;;12.90;6.78;;;1.30;94.30;;;;;;5095472;28;20023;-80
2020/12/17 06:05:05;;;;;;;9.45;6.35;;;1.30;94.30;;;;;;5089251;28;20024;-83
2020/12/17 06:07:33;;;;;;;9.13;6.47;;;1.30;94.20;;;;;;5079634;28;20106;-83
2020/12/17 06:10:07;;;;;;;12.88;6.53;;;1.40;94.20;;;;;;5074982;28;20031;-83
2020/12/17 06:12:35;;;;;;;11.82;8.02;;;1.40;94.20;;;;;;5075787;28;20032;-83
2020/12/17 06:15:06;;;;;;;10.27;7.30;;;1.40;94.30;;;;;;5075755;28;20021;-81
2020/12/17 06:17:38;;;;;;;8.40;5.35;;;1.40;94.30;;;;;;5075145;28;20043;-84
2020/12/17 06:20:06;;;;;;;9.98;6.15;;;1.40;94.40;;;;;;5074326;28;20035;-82
2020/12/17 06:22:35;;;;;;;11.35;6.50;;;1.40;94.40;;;;;;5089672;28;20024;-84
2020/12/17 06:25:01;;;;;;;14.75;7.28;;;1.40;94.50;;;;;;5076818;28;20087;-85
2020/12/17 06:27:31;;;;;;;11.15;7.00;;;1.40;94.60;;;;;;5076383;28;20413;-83
2020/12/17 06:30:07;;;;;;;12.25;7.32;;;1.50;94.50;;;;;;5075718;28;20028;-82
2020/12/17 06:32:37;;;;;;;13.07;6.35;;;1.50;94.50;;;;;;5075185;28;20078;-83
2020/12/17 06:35:30;;;;;;;9.85;5.78;;;1.50;94.50;;;;;;5072020;28;20504;-82
2020/12/17 06:37:56;;;;;;;12.18;5.75;;;1.50;94.60;;;;;;5050483;28;20051;-84
2020/12/17 06:40:29;;;;;;;12.40;6.75;;;1.50;94.60;;;;;;5074210;28;20025;-83
2020/12/17 06:42:56;;;;;;;9.18;6.30;;;1.60;94.60;;;;;;5074579;28;20322;-81
2020/12/17 06:45:32;;;;;;;11.33;5.27;;;1.60;94.40;;;;;;5072417;28;20020;-82
2020/12/17 06:47:59;;;;;;;7.20;5.20;;;1.70;94.40;;;;;;5074135;28;20257;-82
2020/12/17 06:50:28;;;;;;;8.03;5.20;;;1.70;94.30;;;;;;5074483;28;20354;-83
2020/12/17 06:53:11;;;;;;;10.32;5.05;;;1.60;94.30;;;;;;5077393;28;20835;-83
2020/12/17 06:55:45;;;;;;;9.20;5.38;;;1.70;94.30;;;;;;5074210;28;20397;-81
2020/12/17 06:58:22;;;;;;;6.22;4.57;;;1.70;94.20;;;;;;5071094;28;20028;-83
2020/12/17 07:00:51;;;;;;;8.50;4.47;;;1.70;94.20;;;;;;5074250;28;20027;-82
2020/12/17 07:03:42;;;;;;;6.65;5.00;;;1.70;94.00;;;;;;5077907;28;20033;-82
2020/12/17 07:06:16;;;;;;;8.40;5.10;;;1.80;94.00;;;;;;5075888;28;20030;-83
2020/12/17 07:08:50;;;;;;;8.50;5.15;;;1.80;93.90;;;;;;5075353;28;20420;-81
2020/12/17 07:11:39;;;;;;;6.43;4.07;;;1.80;93.90;;;;;;5075343;28;20431;-82
2020/12/17 07:14:32;;;;;;;6.78;4.57;;;1.80;93.80;;;;;;5074405;28;20474;-82
2020/12/17 07:17:01;;;;;;;6.57;4.38;;;1.80;93.80;;;;;;5063829;28;20074;-81
2020/12/17 07:19:28;;;;;;;9.32;5.22;;;1.90;93.80;;;;;;5073331;28;20016;-83
2020/12/17 07:22:05;;;;;;;6.47;4.57;;;1.90;93.80;;;;;;5080672;28;20067;-82
2020/12/17 07:24:35;;;;;;;7.82;5.07;;;1.90;93.70;;;;;;5060419;28;20059;-81
2020/12/17 07:27:04;;;;;;;6.60;4.90;;;1.90;93.70;;;;;;5064312;28;20067;-84
2020/12/17 07:29:32;;;;;;;6.32;4.82;;;1.90;93.70;;;;;;5075454;28;20139;-84
2020/12/17 07:32:36;;;;;;;7.63;5.78;;;2.00;93.80;;;;;;5086213;28;20033;-85
2020/12/17 07:35:08;;;;;;;8.10;4.10;;;2.00;93.70;;;;;;5073574;28;20040;-83
2020/12/17 07:37:57;;;;;;;7.15;4.68;;;2.00;93.70;;;;;;5086586;28;20032;-82
2020/12/17 07:40:43;;;;;;;8.35;4.47;;;2.00;93.80;;;;;;5061703;28;20488;-83
2020/12/17 07:43:16;;;;;;;8.02;4.65;;;2.00;93.80;;;;;;5073771;28;20024;-85
2020/12/17 07:45:55;;;;;;;7.82;5.53;;;2.00;93.80;;;;;;5077579;28;20389;-82
2020/12/17 07:48:40;;;;;;;6.75;5.07;;;2.10;93.80;;;;;;5088194;28;20012;-81
2020/12/17 07:51:15;;;;;;;9.27;5.28;;;2.00;93.70;;;;;;5093577;28;20017;-83
2020/12/17 07:53:45;;;;;;;6.63;6.00;;;2.10;93.70;;;;;;5078468;28;20040;-84
2020/12/17 07:56:11;;;;;;;5.35;4.32;;;2.10;93.70;;;;;;5073533;28;20482;-82
2020/12/17 07:58:38;;;;;;;6.53;4.40;;;2.10;93.60;;;;;;5073885;28;20035;-83
2020/12/17 08:01:05;;;;;;;8.38;5.78;;;2.10;93.70;;;;;;5068264;28;20028;-83
2020/12/17 08:03:52;;;;;;;6.40;3.90;;;2.00;93.70;;;;;;5065105;28;20020;-83
2020/12/17 08:06:19;;;;;;;9.35;4.57;;;2.10;93.70;;;;;;5073531;28;20030;-82
2020/12/17 08:08:46;;;;;;;7.28;4.32;;;2.00;93.70;;;;;;5073186;28;20033;-83
2020/12/17 08:11:13;;;;;;;6.25;5.05;;;2.10;93.70;;;;;;5078482;28;20016;-82
2020/12/17 08:13:39;;;;;;;6.30;5.25;;;2.10;93.80;;;;;;5082282;28;20032;-82
2020/12/17 08:16:05;;;;;;;7.82;4.43;;;2.10;93.70;;;;;;5073045;28;20023;-84
2020/12/17 08:18:33;;;;;;;6.68;5.10;;;2.10;93.60;;;;;;5072071;28;20366;-82
2020/12/17 08:21:02;;;;;;;;;;;2.20;93.60;;;;;;5073625;28;20080;-83
2020/12/17 08:23:29;;;;;;;7.65;4.03;;;2.20;93.60;;;;;;5065259;28;19908;-82
2020/12/17 08:25:56;;;;;;;18.00;5.67;;;2.20;93.70;;;;;;5067416;28;20052;-82
2020/12/17 08:28:22;;;;;;;7.20;4.28;;;2.20;93.60;;;;;;5081605;28;20132;-83
2020/12/17 08:30:48;;;;;;;3.10;2.33;;;2.20;93.60;;;;;;5066786;28;20065;-81
2020/12/17 08:33:14;;;;;;;4.38;3.72;;;2.30;93.60;;;;;;5078987;28;20028;-83
2020/12/17 08:35:40;;;;;;;5.22;3.45;;;2.30;93.50;;;;;;5088255;28;20024;-82
2020/12/17 08:38:09;;;;;;;8.75;3.60;;;2.30;93.50;;;;;;5088941;28;20175;-83
2020/12/17 08:40:38;;;;;;;7.60;3.85;;;2.30;93.40;;;;;;5079253;28;20034;-82
2020/12/17 08:43:10;;;;;;;7.30;3.45;;;2.30;93.40;;;;;;5078349;28;20020;-84
2020/12/17 08:45:39;;;;;;;5.80;3.88;;;2.40;93.40;;;;;;5078319;28;20445;-82
2020/12/17 08:48:14;;;;;;;2.67;2.15;;;2.40;93.40;;;;;;5077894;28;20020;-84
2020/12/17 08:50:41;;;;;;;6.72;3.22;;;2.40;93.20;;;;;;5077366;28;20052;-84
2020/12/17 08:53:23;;;;;;;7.00;3.25;;;2.40;93.20;;;;;;5075853;28;20040;-82
2020/12/17 08:56:09;;;;;;;4.10;2.55;;;2.50;93.20;;;;;;5077129;28;20024;-82
2020/12/17 08:58:48;;;;;;;6.10;2.67;;;2.50;93.00;;;;;;5078981;28;20020;-84
2020/12/17 09:01:20;;;;;;;6.60;3.40;;;2.60;93.00;;;;;;5092419;28;20066;-84
2020/12/17 09:03:47;;;;;;;3.70;2.63;;;2.60;92.80;;;;;;5084043;28;20034;-83
2020/12/17 09:06:13;;;;;;;5.25;2.30;;;2.70;92.80;;;;;;5077085;28;20377;-83
2020/12/17 09:08:40;;;;;;;3.45;2.50;;;2.70;92.60;;;;;;5077449;28;20040;-83
2020/12/17 09:11:26;;;;;;;5.78;3.25;;;2.80;92.40;;;;;;5081906;28;20505;-83
2020/12/17 09:14:06;;;;;;;5.47;3.50;;;2.70;92.40;;;;;;5084676;28;20044;-84
2020/12/17 09:16:34;;;;;;;4.88;3.05;;;2.90;92.40;;;;;;5064854;28;20023;-85
2020/12/17 09:19:02;;;;;;;;;;;2.90;92.30;;;;;;5079178;28;20024;-85
2020/12/17 09:21:28;;;;;;;3.63;2.53;;;2.90;92.30;;;;;;5079700;28;19999;-84
2020/12/17 09:23:58;;;;;;;5.28;2.80;;;3.00;92.10;;;;;;5095664;28;20017;-84
2020/12/17 09:26:25;;;;;;;6.82;3.38;;;3.10;92.00;;;;;;5085450;28;20039;-84
2020/12/17 09:28:59;;;;;;;7.57;4.38;;;3.20;91.70;;;;;;5087599;28;20027;-83
2020/12/17 09:31:28;;;;;;;4.40;2.40;;;3.10;91.50;;;;;;5075907;28;20478;-84
2020/12/17 09:34:02;;;;;;;4.20;3.17;;;3.10;91.40;;;;;;5079006;28;20020;-84
2020/12/17 09:36:28;;;;;;;3.00;2.05;;;3.10;91.30;;;;;;5081237;28;20017;-82
2020/12/17 09:38:59;;;;;;;2.42;2.13;;;3.10;91.20;;;;;;5097149;28;20011;-83
2020/12/17 09:41:26;;;;;;;2.63;1.98;;;3.00;91.30;;;;;;5084507;28;20081;-83
2020/12/17 09:43:52;;;;;;;6.13;2.43;;;3.00;91.20;;;;;;5080084;28;20116;-84
2020/12/17 09:46:18;;;;;;;5.78;2.80;;;3.00;91.20;;;;;;5076951;28;20326;-85
2020/12/17 09:48:43;;;;;;;2.78;2.10;;;3.00;91.20;;;;;;5075227;28;20020;-84
2020/12/17 09:51:10;;;;;;;2.90;2.08;;;3.00;91.10;;;;;;5064387;28;20044;-84
2020/12/17 09:53:43;;;;;;;2.55;1.88;;;3.00;91.10;;;;;;5078290;28;20032;-83
2020/12/17 09:56:13;;;;;;;3.85;2.60;;;3.00;91.10;;;;;;5061982;28;20024;-84
2020/12/17 09:58:46;;;;;;;3.42;2.30;;;3.00;91.20;;;;;;5070774;28;20029;-82
2020/12/17 10:01:12;;;;;;;3.97;3.58;;;3.10;91.10;;;;;;5062961;28;20025;-83
2020/12/17 10:03:38;;;;;;;2.28;1.80;;;3.10;90.90;;;;;;5076209;28;20028;-84
2020/12/17 10:06:05;;;;;;;5.00;2.60;;;3.00;90.80;;;;;;5060163;28;20021;-83
2020/12/17 10:08:31;;;;;;;1.83;1.60;;;3.10;90.90;;;;;;5074887;28;20021;-83
2020/12/17 10:10:57;;;;;;;4.05;2.15;;;3.10;90.60;;;;;;5061278;28;20086;-83
2020/12/17 10:13:23;;;;;;;6.15;4.03;;;3.10;90.60;;;;;;5075502;28;20043;-83
2020/12/17 10:15:48;;;;;;;4.78;2.30;;;3.10;90.60;;;;;;5076827;28;20016;-85
2020/12/17 10:18:14;;;;;;;4.28;1.95;;;3.10;90.60;;;;;;5089063;28;20028;-83
2020/12/17 10:20:40;;;;;;;5.43;2.30;;;3.10;90.50;;;;;;5088879;28;20026;-83
2020/12/17 10:23:06;;;;;;;5.28;2.70;;;3.10;90.60;;;;;;5075069;28;20134;-83
2020/12/17 10:25:32;;;;;;;3.53;2.15;;;3.00;90.60;;;;;;5076002;28;20151;-85
2020/12/17 10:28:01;;;;;;;3.15;2.42;;;3.10;90.60;;;;;;5073728;28;20073;-84
2020/12/17 10:30:27;;;;;;;4.60;2.47;;;3.10;90.60;;;;;;5074405;28;20073;-83
2020/12/17 10:32:55;;;;;;;4.68;3.38;;;3.20;90.60;;;;;;5074247;28;20173;-84
2020/12/17 10:35:21;;;;;;;2.95;1.95;;;3.20;90.40;;;;;;5078036;28;20032;-84
2020/12/17 10:37:47;;;;;;;3.90;3.10;;;3.20;90.50;;;;;;5080913;28;20029;-86
2020/12/17 10:40:13;;;;;;;4.72;2.58;;;3.10;90.60;;;;;;5074929;28;20048;-85
2020/12/17 10:42:40;;;;;;;2.60;1.85;;;3.10;90.60;;;;;;5075987;28;20055;-84
2020/12/17 10:45:07;;;;;;;4.95;2.47;;;3.10;90.70;;;;;;5076165;28;20257;-82
2020/12/17 10:47:34;;;;;;;5.97;2.65;;;3.10;90.70;;;;;;5076930;28;20029;-83
2020/12/17 10:50:00;;;;;;;6.38;4.40;;;3.00;90.80;;;;;;5076542;28;20374;-82
2020/12/17 10:52:25;;;;;;;4.28;2.78;;;3.10;90.90;;;;;;5075414;28;20024;-84
2020/12/17 10:54:51;;;;;;;6.88;3.00;;;3.10;90.80;;;;;;5074643;28;20032;-84
2020/12/17 10:57:21;;;;;;;4.28;2.80;;;3.10;90.90;;;;;;5072567;28;20028;-84
2020/12/17 10:59:49;;;;;;;4.45;2.60;;;3.10;91.10;;;;;;5075302;28;20505;-84
2020/12/17 11:02:16;;;;;;;5.47;3.08;;;3.10;90.80;;;;;;5072895;28;20021;-83
2020/12/17 11:04:42;;;;;;;5.07;2.90;;;3.00;90.90;;;;;;5075741;28;20027;-83
2020/12/17 11:07:08;;;;;;;4.97;2.90;;;3.00;90.90;;;;;;5060757;28;20041;-83
2020/12/17 11:09:33;;;;;;;4.15;3.15;;;3.00;91.00;;;;;;5079579;28;20012;-85
2020/12/17 11:11:59;;;;;;;5.80;2.75;;;3.00;91.00;;;;;;5096290;28;20475;-85
2020/12/17 11:14:25;;;;;;;11.70;4.35;;;3.00;91.00;;;;;;5075845;28;20020;-83
2020/12/17 11:16:51;;;;;;;3.10;2.60;;;3.10;91.00;;;;;;5083892;28;20028;-85
2020/12/17 11:19:18;;;;;;;3.22;2.22;;;3.00;91.00;;;;;;5079080;28;20024;-84
2020/12/17 11:21:44;;;;;;;4.10;2.55;;;3.10;91.00;;;;;;5084404;28;20016;-83
2020/12/17 11:24:11;;;;;;;4.47;2.30;;;3.10;91.00;;;;;;5086972;28;20063;-84
2020/12/17 11:26:44;;;;;;;4.70;2.40;;;3.10;91.00;;;;;;5092512;28;20067;-84
2020/12/17 11:29:11;;;;;;;8.23;2.78;;;3.10;91.10;;;;;;5082303;28;20020;-84
2020/12/17 11:31:37;;;;;;;4.70;2.97;;;3.00;91.00;;;;;;5075238;28;20032;-83
2020/12/17 11:34:03;;;;;;;5.43;2.45;;;3.00;91.10;;;;;;5085973;28;20030;-83
2020/12/17 11:36:29;;;;;;;3.00;2.40;;;3.00;91.10;;;;;;5076946;28;20020;-84
2020/12/17 11:38:55;;;;;;;5.05;2.30;;;3.00;91.10;;;;;;5065291;28;20036;-84
2020/12/17 11:41:20;;;;;;;6.15;3.92;;;3.00;91.10;;;;;;5067668;28;20078;-85
2020/12/17 11:43:47;;;;;;;5.15;3.25;;;3.00;91.20;;;;;;5074171;28;20031;-85
2020/12/17 11:46:12;;;;;;;3.50;2.17;;;3.00;91.20;;;;;;5075614;28;20012;-83
2020/12/17 11:48:38;;;;;;;7.30;3.63;;;2.90;91.30;;;;;;5074545;28;20027;-82
2020/12/17 11:51:04;;;;;;;2.78;1.98;;;2.90;91.40;;;;;;5083052;28;20020;-83
2020/12/17 11:53:30;;;;;;;6.25;2.92;;;2.90;91.50;;;;;;5098658;28;20115;-86
2020/12/17 11:55:58;;;;;;;3.83;2.80;;;2.90;91.50;;;;;;5081133;28;20035;-85
2020/12/17 11:58:24;;;;;;;3.20;2.15;;;2.90;91.60;;;;;;5086631;28;20432;-83
2020/12/17 12:00:50;;;;;;;4.53;3.50;;;2.80;91.60;;;;;;5090174;28;20017;-84
2020/12/17 12:03:15;;;;;;;4.03;2.65;;;2.80;91.70;;;;;;5073786;28;20028;-83
2020/12/17 12:05:41;;;;;;;3.50;2.50;;;2.80;91.70;;;;;;5062066;28;20025;-85
2020/12/17 12:08:07;;;;;;;3.53;2.33;;;2.70;91.70;;;;;;5073565;28;20482;-84
2020/12/17 12:10:33;;;;;;;8.13;2.92;;;2.80;91.90;;;;;;5089485;28;20027;-84
2020/12/17 12:12:59;;;;;;;3.47;2.45;;;2.70;91.80;;;;;;5087573;28;20060;-84
2020/12/17 12:15:24;;;;;;;3.83;2.53;;;2.70;91.80;;;;;;5086646;28;20028;-84
2020/12/17 12:17:52;;;;;;;4.03;2.40;;;2.70;91.90;;;;;;5080702;28;20031;-85
2020/12/17 12:20:18;;;;;;;4.47;2.63;;;2.70;91.90;;;;;;5083687;28;20033;-82
2020/12/17 12:22:45;;;;;;;5.20;2.65;;;2.70;91.90;;;;;;5075458;28;20028;-84
2020/12/17 12:25:11;;;;;;;3.42;2.00;;;2.70;91.90;;;;;;5085587;28;20045;-83
2020/12/17 12:27:37;;;;;;;6.22;1.90;;;2.70;91.90;;;;;;5074579;28;20084;-84
2020/12/17 12:30:03;;;;;;;5.22;2.60;;;2.70;91.90;;;;;;5074490;28;20427;-83
2020/12/17 12:32:29;;;;;;;2.53;2.00;;;2.70;91.90;;;;;;5080661;28;20051;-86
2020/12/17 12:34:55;;;;;;;5.78;2.60;;;2.60;91.90;;;;;;5076675;28;20473;-85
2020/12/17 12:37:21;;;;;;;4.90;3.03;;;2.70;92.00;;;;;;5075763;28;20598;-84
2020/12/17 12:39:47;;;;;;;7.80;2.97;;;2.70;92.00;;;;;;5077750;28;20035;-86
2020/12/17 12:42:12;;;;;;;9.98;4.55;;;2.80;91.90;;;;;;5075476;28;20025;-85
2020/12/17 12:44:38;;;;;;;5.63;3.10;;;2.80;91.90;;;;;;5081751;28;20017;-84
2020/12/17 12:47:04;;;;;;;2.33;1.67;;;2.80;91.80;;;;;;5074594;28;20028;-85
2020/12/17 12:49:30;;;;;;;5.43;2.33;;;2.80;91.80;;;;;;5075947;28;20017;-86
2020/12/17 12:51:56;;;;;;;4.35;2.10;;;2.80;91.80;;;;;;5062134;28;20056;-84
2020/12/17 12:54:21;;;;;;;3.22;2.15;;;2.80;92.00;;;;;;5086369;28;20021;-83
2020/12/17 12:56:47;;;;;;;3.22;2.03;;;2.80;91.70;;;;;;5075716;28;20024;-85
2020/12/17 12:59:13;;;;;;;2.95;2.35;;;2.80;91.70;;;;;;5074834;28;20446;-81
2020/12/17 13:01:40;;;;;;;4.68;4.13;;;2.90;91.70;;;;;;5063270;28;20025;-82